.
WxDataArchive / Data Records for 2014-12-27
2014-12-26 December 2014 2014-12-28

Data Records for Saturday, 27 December 2014

Time	Temp	Chill	HIndex	Humid	Dewpt	 Wind 	HiWind	WindDir	Rain 	Barom
-----	----	-----	------	-----	-----	------	------	-------	-----	-----
00:00	44.9	44.9	44.9	81	39.4	0	1	45	0.00	30.109 
00:05	44.9	44.9	44.9	81	39.4	0	2	45	0.00	30.109 
00:10	44.9	44.9	44.9	80	39.1	0	1	45	0.00	30.109 
00:15	44.9	44.9	44.9	80	39.1	0	1	45	0.00	30.102 
00:20	45.1	45.1	45.1	80	39.3	0	1	45	0.00	30.102 
00:25	45.1	45.1	45.1	80	39.3	0	1	45	0.00	30.102 
00:30	45.1	45.1	45.1	80	39.3	0	1	45	0.00	30.101 
00:35	45.1	45.1	45.1	80	39.3	0	2	270	0.00	30.101 
00:40	44.9	44.9	44.9	80	39.1	0	1	270	0.00	30.101 
00:45	44.9	44.9	44.9	81	39.4	0	1	270	0.00	30.100 
00:50	44.9	44.9	44.9	81	39.4	0	1	270	0.00	30.100 
00:55	44.8	44.8	44.8	81	39.3	0	1	270	0.00	30.100 
01:00	44.6	44.6	44.6	81	39.1	0	2	270	0.00	30.097 
01:05	44.6	44.6	44.6	81	39.1	0	1	270	0.00	30.097 
01:10	44.5	44.5	44.5	81	39.0	0	2	270	0.00	30.097 
01:15	44.5	44.5	44.5	81	39.0	0	1	270	0.00	30.092 
01:20	44.3	44.3	44.3	81	38.8	0	1	270	0.00	30.092 
01:25	44.3	44.3	44.3	81	38.8	0	1	270	0.00	30.092 
01:30	44.2	44.2	44.2	82	39.1	0	1	270	0.00	30.093 
01:35	44.2	44.2	44.2	82	39.1	0	1	270	0.00	30.093 
01:40	44.1	44.1	44.1	82	39.0	0	0	---	0.00	30.093 
01:45	44.1	44.1	44.1	82	39.0	0	1	270	0.00	30.094 
01:50	44.1	44.1	44.1	82	39.0	0	1	270	0.00	30.094 
01:55	43.9	43.9	43.9	83	39.1	0	1	270	0.00	30.094 
02:00	43.9	43.9	43.9	83	39.1	0	0	---	0.00	30.093 
02:05	43.9	43.9	43.9	83	39.1	0	0	---	0.00	30.093 
02:10	43.9	43.9	43.9	83	39.1	0	1	270	0.00	30.093 
02:15	43.9	43.9	43.9	83	39.1	0	1	270	0.00	30.092 
02:20	43.9	43.9	43.9	83	39.1	0	1	270	0.00	30.092 
02:25	43.9	43.9	43.9	84	39.4	0	1	270	0.00	30.092 
02:30	43.9	43.9	43.9	84	39.4	0	1	270	0.00	30.097 
02:35	44.1	44.1	44.1	84	39.6	0	0	---	0.00	30.097 
02:40	44.1	44.1	44.1	84	39.6	0	1	270	0.00	30.097 
02:45	44.2	44.2	44.2	84	39.7	0	2	270	0.00	30.106 
02:50	44.2	44.2	44.2	83	39.4	0	1	270	0.00	30.106 
02:55	44.3	44.3	44.3	83	39.5	0	1	270	0.00	30.106 
03:00	44.3	44.3	44.3	83	39.5	0	1	270	0.00	30.096 
03:05	44.3	44.3	44.3	83	39.5	0	1	270	0.00	30.096 
03:10	44.3	44.3	44.3	83	39.5	0	0	---	0.00	30.096 
03:15	44.3	44.3	44.3	83	39.5	0	1	270	0.00	30.098 
03:20	44.5	44.5	44.5	83	39.7	0	1	270	0.00	30.098 
03:25	44.5	44.5	44.5	83	39.7	0	1	270	0.00	30.098 
03:30	44.6	44.6	44.6	83	39.8	0	2	270	0.00	30.100 
03:35	44.9	44.9	44.9	82	39.7	0	2	270	0.00	30.100 
03:40	45.2	45.2	45.2	82	40.0	0	2	270	0.00	30.100 
03:45	45.4	45.4	45.4	81	39.9	0	2	270	0.00	30.092 
03:50	45.7	45.7	45.7	81	40.2	0	1	270	0.00	30.092 
03:55	45.8	45.8	45.8	80	40.0	0	2	270	0.00	30.092 
04:00	46.1	46.1	46.1	80	40.3	0	3	270	0.00	30.093 
04:05	46.2	46.2	46.2	81	40.7	0	1	270	0.00	30.093 
04:10	46.2	46.2	46.2	81	40.7	0	1	270	0.00	30.093 
04:15	46.2	46.2	46.2	81	40.7	0	1	270	0.00	30.091 
04:20	46.2	46.2	46.2	81	40.7	0	2	270	0.00	30.091 
04:25	46.1	46.1	46.1	82	40.9	0	1	270	0.00	30.091 
04:30	46.1	46.1	46.1	82	40.9	0	2	270	0.00	30.093 
04:35	46.1	46.1	46.1	82	40.9	0	1	270	0.00	30.093 
04:40	45.8	45.8	45.8	83	40.9	0	3	270	0.00	30.093 
04:45	45.7	45.7	45.7	84	41.1	0	3	68	0.00	30.076 
04:50	45.5	45.5	45.5	84	41.0	0	1	68	0.00	30.076 
04:55	45.4	45.4	45.4	83	40.5	1	4	90	0.00	30.076 
05:00	45.4	45.4	45.4	83	40.5	1	3	90	0.00	30.075 
05:05	45.5	45.5	45.5	82	40.3	0	2	90	0.00	30.075 
05:10	45.5	45.5	45.5	82	40.3	0	1	90	0.00	30.075 
05:15	45.5	45.5	45.5	82	40.3	0	2	90	0.00	30.072 
05:20	45.5	45.5	45.5	81	40.0	0	2	90	0.00	30.072 
05:25	45.5	45.5	45.5	81	40.0	0	1	90	0.00	30.072 
05:30	45.5	45.5	45.5	81	40.0	0	2	90	0.00	30.069 
05:35	45.5	45.5	45.5	81	40.0	0	2	90	0.00	30.069 
05:40	45.5	45.5	45.5	81	40.0	0	1	90	0.00	30.069 
05:45	45.5	45.5	45.5	81	40.0	0	1	90	0.00	30.075 
05:50	45.5	45.5	45.5	81	40.0	0	1	90	0.00	30.075 
05:55	45.5	45.5	45.5	80	39.7	0	1	90	0.00	30.075 
06:00	45.5	45.5	45.5	80	39.7	0	1	90	0.00	30.076 
06:05	45.5	45.5	45.5	80	39.7	0	3	90	0.00	30.076 
06:10	45.5	45.5	45.5	80	39.7	0	1	90	0.00	30.076 
06:15	45.5	45.5	45.5	80	39.7	0	1	90	0.00	30.073 
06:20	45.4	45.4	45.4	80	39.6	0	1	90	0.00	30.073 
06:25	45.4	45.4	45.4	81	39.9	0	2	90	0.00	30.073 
06:30	45.2	45.2	45.2	81	39.7	0	1	90	0.00	30.071 
06:35	45.1	45.1	45.1	82	39.9	0	3	90	0.00	30.071 
06:40	44.9	44.9	44.9	82	39.7	0	3	90	0.00	30.071 
06:45	44.8	44.8	44.8	83	40.0	1	5	112	0.00	30.064 
06:50	44.8	44.8	44.8	82	39.6	1	3	112	0.00	30.064 
06:55	44.8	44.8	44.8	83	40.0	0	2	112	0.00	30.064 
07:00	44.6	44.6	44.6	83	39.8	0	2	112	0.00	30.072 
07:05	44.6	44.6	44.6	83	39.8	0	2	112	0.00	30.072 
07:10	44.5	44.5	44.5	84	40.0	0	3	225	0.00	30.072 
07:15	44.3	44.3	44.3	84	39.8	0	2	225	0.00	30.080 
07:20	44.2	44.2	44.2	84	39.7	0	2	225	0.01	30.080 
07:25	44.2	44.2	44.2	85	40.0	0	3	225	0.00	30.080 
07:30	43.9	43.9	43.9	85	39.7	0	2	225	0.00	30.080 
07:35	43.8	43.8	43.8	86	39.9	0	2	112	0.00	30.080 
07:40	43.6	43.6	43.6	86	39.7	0	2	112	0.00	30.080 
07:45	43.5	43.5	43.5	87	39.9	0	1	112	0.00	30.072 
07:50	43.3	43.3	43.3	87	39.7	0	2	68	0.00	30.072 
07:55	43.3	43.3	43.3	88	40.0	0	3	68	0.00	30.072 
08:00	43.2	43.2	43.2	89	40.2	0	2	270	0.00	30.074 
08:05	43.1	43.1	43.1	89	40.1	0	1	270	0.00	30.074 
08:10	43.1	43.1	43.1	89	40.1	0	2	270	0.00	30.074 
08:15	43.1	43.1	43.1	89	40.1	0	3	270	0.00	30.075 
08:20	43.1	43.1	43.1	90	40.4	1	5	248	0.00	30.075 
08:25	43.2	43.2	43.2	90	40.5	0	2	292	0.00	30.075 
08:30	43.2	43.2	43.2	90	40.5	1	3	270	0.00	30.080 
08:35	43.3	43.3	43.3	90	40.6	1	5	270	0.00	30.080 
08:40	43.3	43.3	43.3	90	40.6	1	4	338	0.00	30.080 
08:45	43.3	43.3	43.3	90	40.6	0	2	248	0.00	30.077 
08:50	43.5	43.5	43.5	90	40.8	0	2	248	0.00	30.077 
08:55	43.5	43.5	43.5	91	41.0	0	4	248	0.00	30.077 
09:00	43.5	43.5	43.5	91	41.0	1	4	292	0.00	30.079 
09:05	43.6	43.6	43.6	91	41.1	1	3	270	0.00	30.079 
09:10	43.6	43.6	43.6	91	41.1	0	4	248	0.00	30.079 
09:15	43.6	43.6	43.6	91	41.1	0	3	248	0.00	30.079 
09:20	43.6	43.6	43.6	91	41.1	0	3	270	0.00	30.079 
09:25	43.8	43.8	43.8	91	41.3	0	2	338	0.00	30.079 
09:30	43.8	43.8	43.8	91	41.3	0	2	0	0.00	30.077 
09:35	43.8	43.8	43.8	91	41.3	0	2	315	0.00	30.077 
09:40	43.8	43.8	43.8	92	41.6	0	3	270	0.00	30.077 
09:45	43.8	43.8	43.8	92	41.6	0	3	225	0.00	30.078 
09:50	43.9	43.9	43.9	92	41.7	0	4	22	0.00	30.078 
09:55	43.9	43.9	43.9	92	41.7	0	4	270	0.00	30.078 
10:00	43.9	43.9	43.9	92	41.7	0	4	248	0.00	30.068 
10:05	44.1	44.1	44.1	92	41.9	0	4	248	0.00	30.068 
10:10	44.1	44.1	44.1	92	41.9	1	3	248	0.00	30.068 
10:15	44.2	44.2	44.2	92	42.0	1	4	248	0.00	30.067 
10:20	44.3	44.3	44.3	92	42.1	1	4	270	0.00	30.067 
10:25	44.5	44.5	44.5	92	42.3	1	5	90	0.00	30.067 
10:30	44.6	44.6	44.6	92	42.4	1	4	90	0.00	30.068 
10:35	44.8	44.8	44.8	92	42.6	1	4	292	0.00	30.068 
10:40	44.9	44.9	44.9	92	42.7	0	2	270	0.00	30.068 
10:45	44.9	44.9	44.9	92	42.7	1	4	248	0.00	30.064 
10:50	45.1	45.1	45.1	92	42.9	1	4	270	0.00	30.064 
10:55	45.2	45.2	45.2	92	43.0	1	5	248	0.00	30.064 
11:00	45.2	45.2	45.2	92	43.0	0	3	248	0.00	30.060 
11:05	45.4	45.4	45.4	92	43.2	1	4	248	0.00	30.060 
11:10	45.4	45.4	45.4	92	43.2	1	3	248	0.00	30.060 
11:15	45.5	45.5	45.5	91	43.0	1	3	248	0.00	30.049 
11:20	45.7	45.7	45.7	91	43.2	2	5	270	0.00	30.049 
11:25	45.7	45.7	45.7	91	43.2	1	4	270	0.00	30.049 
11:30	45.7	45.7	45.7	91	43.2	1	3	248	0.00	30.046 
11:35	45.7	45.7	45.7	91	43.2	1	7	248	0.00	30.046 
11:40	45.7	45.7	45.7	91	43.2	1	4	248	0.00	30.046 
11:45	45.7	45.7	45.7	91	43.2	2	6	270	0.00	30.042 
11:50	45.7	45.7	45.7	92	43.5	1	5	248	0.00	30.042 
11:55	45.5	45.5	45.5	92	43.3	2	5	248	0.00	30.042 
12:00	45.5	45.5	45.5	92	43.3	2	6	248	0.00	30.035 
12:05	45.5	45.5	45.5	92	43.3	1	5	248	0.00	30.035 
12:10	45.5	45.5	45.5	92	43.3	1	3	248	0.00	30.035 
12:15	45.5	45.5	45.5	92	43.3	1	5	248	0.00	30.029 
12:20	45.4	45.4	45.4	91	42.9	1	3	270	0.00	30.029 
12:25	45.4	45.4	45.4	92	43.2	1	3	248	0.00	30.029 
12:30	45.5	45.5	45.5	91	43.0	1	4	248	0.00	30.024 
12:35	45.5	45.5	45.5	91	43.0	1	5	270	0.00	30.024 
12:40	45.5	45.5	45.5	91	43.0	1	4	270	0.00	30.024 
12:45	45.5	45.5	45.5	91	43.0	1	6	248	0.00	30.014 
12:50	45.5	45.5	45.5	91	43.0	1	6	248	0.00	30.014 
12:55	45.5	45.5	45.5	91	43.0	2	6	248	0.00	30.014 
13:00	45.5	45.5	45.5	91	43.0	1	4	248	0.00	30.016 
13:05	45.5	45.5	45.5	91	43.0	1	7	225	0.00	30.016 
13:10	45.7	45.7	45.7	91	43.2	2	9	248	0.00	30.016 
13:15	45.7	45.7	45.7	91	43.2	1	4	248	0.00	30.015 
13:20	45.7	45.7	45.7	91	43.2	1	5	248	0.00	30.015 
13:25	45.7	45.7	45.7	91	43.2	2	5	270	0.00	30.015 
13:30	45.8	45.8	45.8	90	43.0	2	6	248	0.00	30.006 
13:35	45.8	45.8	45.8	90	43.0	2	6	270	0.00	30.006 
13:40	46.0	46.0	46.0	90	43.2	1	6	248	0.00	30.006 
13:45	46.0	46.0	46.0	90	43.2	1	5	248	0.00	29.998 
13:50	46.0	46.0	46.0	90	43.2	1	5	248	0.00	29.998 
13:55	46.0	46.0	46.0	90	43.2	2	5	248	0.00	29.998 
14:00	46.0	46.0	46.0	90	43.2	2	7	248	0.00	29.997 
14:05	46.0	46.0	46.0	90	43.2	1	5	248	0.00	29.997 
14:10	46.1	46.1	46.1	90	43.3	1	6	248	0.00	29.997 
14:15	46.1	46.1	46.1	90	43.3	1	4	248	0.00	29.998 
14:20	46.1	46.1	46.1	90	43.3	1	4	248	0.00	29.998 
14:25	46.2	46.2	46.2	90	43.4	0	2	292	0.00	29.998 
14:30	46.2	46.2	46.2	90	43.4	1	5	248	0.00	29.995 
14:35	46.2	46.2	46.2	90	43.4	1	6	248	0.00	29.995 
14:40	46.2	46.2	46.2	90	43.4	0	3	248	0.00	29.995 
14:45	46.4	46.4	46.4	90	43.6	1	7	248	0.00	29.983 
14:50	46.4	46.4	46.4	90	43.6	1	3	270	0.00	29.983 
14:55	46.4	46.4	46.4	90	43.6	2	6	248	0.00	29.983 
15:00	46.4	46.4	46.4	90	43.6	1	5	248	0.00	29.982 
15:05	46.4	46.4	46.4	90	43.6	1	7	248	0.00	29.982 
15:10	46.5	46.5	46.5	90	43.7	1	3	248	0.00	29.982 
15:15	46.5	46.5	46.5	90	43.7	1	3	270	0.00	29.970 
15:20	46.5	46.5	46.5	90	43.7	1	3	248	0.00	29.970 
15:25	46.5	46.5	46.5	90	43.7	0	2	248	0.00	29.970 
15:30	46.7	46.7	46.7	90	43.9	0	3	248	0.00	29.980 
15:35	46.7	46.7	46.7	90	43.9	1	3	248	0.00	29.980 
15:40	46.7	46.7	46.7	90	43.9	1	5	248	0.00	29.980 
15:45	46.7	46.7	46.7	90	43.9	0	2	248	0.00	29.985 
15:50	46.8	46.8	46.8	90	44.0	0	4	248	0.00	29.985 
15:55	46.8	46.8	46.8	91	44.3	1	5	248	0.00	29.985 
16:00	46.8	46.8	46.8	90	44.0	1	3	270	0.00	29.995 
16:05	46.8	46.8	46.8	91	44.3	1	5	270	0.00	29.995 
16:10	47.0	47.0	47.0	91	44.5	0	5	248	0.00	29.995 
16:15	47.0	47.0	47.0	91	44.5	0	2	248	0.00	29.995 
16:20	47.0	47.0	47.0	91	44.5	2	6	248	0.00	29.995 
16:25	47.0	47.0	47.0	91	44.5	1	3	248	0.00	29.995 
16:30	47.1	47.1	47.1	91	44.6	2	7	270	0.00	30.006 
16:35	47.1	47.1	47.1	91	44.6	1	5	270	0.00	30.006 
16:40	47.1	47.1	47.1	91	44.6	1	5	270	0.00	30.006 
16:45	47.3	47.3	47.3	91	44.8	1	5	270	0.00	29.993 
16:50	47.3	47.3	47.3	90	44.5	2	6	248	0.00	29.993 
16:55	47.3	47.3	47.3	90	44.5	2	6	248	0.00	29.993 
17:00	47.4	47.4	47.4	90	44.6	2	6	270	0.00	30.008 
17:05	47.4	47.4	47.4	90	44.6	1	3	270	0.00	30.008 
17:10	47.4	47.4	47.4	90	44.6	2	5	248	0.00	30.008 
17:15	47.4	47.4	47.4	90	44.6	2	6	248	0.00	30.012 
17:20	47.4	47.4	47.4	90	44.6	2	5	248	0.00	30.012 
17:25	47.4	47.4	47.4	90	44.6	2	9	248	0.00	30.012 
17:30	47.4	47.4	47.4	91	44.9	2	5	270	0.00	30.014 
17:35	47.3	47.3	47.3	91	44.8	1	4	248	0.00	30.014 
17:40	47.3	47.3	47.3	91	44.8	1	5	248	0.00	30.014 
17:45	47.3	47.3	47.3	91	44.8	1	4	248	0.00	30.006 
17:50	47.1	47.1	47.1	91	44.6	1	5	248	0.00	30.006 
17:55	47.1	47.1	47.1	91	44.6	1	3	270	0.00	30.006 
18:00	47.1	47.1	47.1	92	44.9	1	4	248	0.00	29.992 
18:05	47.1	47.1	47.1	91	44.6	1	3	248	0.00	29.992 
18:10	47.1	47.1	47.1	91	44.6	1	3	248	0.00	29.992 
18:15	47.1	47.1	47.1	91	44.6	0	2	248	0.00	29.993 
18:20	47.1	47.1	47.1	91	44.6	0	3	248	0.00	29.993 
18:25	47.1	47.1	47.1	91	44.6	1	3	248	0.00	29.993 
18:30	47.1	47.1	47.1	91	44.6	3	5	248	0.00	29.993 
18:35	46.7	46.7	46.7	90	43.9	2	6	270	0.00	29.993 
18:40	46.2	46.2	46.2	90	43.4	3	5	270	0.00	29.993 
18:45	45.7	45.7	45.7	89	42.6	2	5	270	0.00	30.014 
18:50	45.1	45.1	45.1	87	41.5	3	7	270	0.00	30.014 
18:55	44.6	44.6	44.6	84	40.1	3	9	270	0.00	30.014 
19:00	44.3	44.3	44.3	82	39.2	2	5	248	0.00	30.017 
19:05	44.2	44.2	44.2	81	38.7	1	4	248	0.00	30.017 
19:10	43.6	43.6	43.6	82	38.5	3	6	292	0.00	30.017 
19:15	43.1	43.1	43.1	82	38.0	3	7	248	0.01	30.045 
19:20	42.5	40.2	42.5	83	37.7	4	8	270	0.00	30.045 
19:25	42.1	42.1	42.1	84	37.6	3	7	270	0.00	30.045 
19:30	41.6	41.6	41.6	84	37.1	2	5	270	0.00	30.038 
19:35	41.3	41.3	41.3	85	37.1	1	4	248	0.00	30.038 
19:40	41.1	41.1	41.1	85	36.9	2	3	248	0.00	30.038 
19:45	40.9	40.9	40.9	85	36.7	1	3	248	0.00	30.027 
19:50	40.6	40.6	40.6	86	36.7	1	3	248	0.00	30.027 
19:55	40.5	40.5	40.5	85	36.4	2	5	270	0.00	30.027 
20:00	40.5	40.5	40.5	86	36.6	0	2	270	0.00	30.033 
20:05	40.3	40.3	40.3	86	36.5	0	2	270	0.00	30.033 
20:10	40.2	40.2	40.2	86	36.4	1	4	270	0.00	30.033 
20:15	40.1	40.1	40.1	86	36.3	1	4	270	0.00	30.035 
20:20	39.9	39.9	39.9	86	36.1	2	4	270	0.00	30.035 
20:25	39.9	39.9	39.9	86	36.1	1	3	270	0.00	30.035 
20:30	39.8	39.8	39.8	86	36.0	0	2	270	0.00	30.035 
20:35	39.6	39.6	39.6	87	36.1	0	2	270	0.00	30.035 
20:40	39.5	39.5	39.5	88	36.2	0	2	270	0.00	30.035 
20:45	39.3	39.3	39.3	88	36.0	1	3	270	0.01	30.056 
20:50	39.2	39.2	39.2	88	35.9	1	2	270	0.00	30.056 
20:55	38.8	38.8	38.8	88	35.6	1	4	292	0.00	30.056 
21:00	38.5	38.5	38.5	88	35.3	1	3	270	0.01	30.063 
21:05	38.3	38.3	38.3	88	35.1	1	6	270	0.00	30.063 
21:10	38.0	38.0	38.0	89	35.1	1	5	292	0.01	30.063 
21:15	37.8	37.8	37.8	89	34.9	0	2	292	0.00	30.057 
21:20	37.6	37.6	37.6	89	34.7	0	2	292	0.00	30.057 
21:25	37.3	37.3	37.3	89	34.4	1	4	270	0.01	30.057 
21:30	37.0	37.0	37.0	89	34.1	1	2	270	0.00	30.041 
21:35	36.6	36.6	36.6	89	33.7	0	3	270	0.01	30.041 
21:40	36.3	36.3	36.3	89	33.4	0	2	270	0.00	30.041 
21:45	36.2	36.2	36.2	90	33.6	0	1	270	0.01	30.049 
21:50	35.8	35.8	35.8	89	32.9	1	3	270	0.01	30.049 
21:55	35.5	35.5	35.5	90	32.9	1	4	270	0.00	30.049 
22:00	35.0	35.0	35.0	90	32.4	0	3	315	0.01	30.058 
22:05	34.7	34.7	34.7	90	32.1	0	2	315	0.00	30.058 
22:10	34.3	34.3	34.3	90	31.7	0	1	315	0.00	30.058 
22:15	34.0	34.0	34.0	90	31.4	0	1	315	0.00	30.066 
22:20	33.7	33.7	33.7	91	31.4	0	2	315	0.00	30.066 
22:25	33.7	33.7	33.7	91	31.4	0	1	315	0.00	30.066 
22:30	33.5	33.5	33.5	91	31.2	0	1	315	0.00	30.057 
22:35	33.4	33.4	33.4	91	31.1	0	1	315	0.00	30.057 
22:40	33.4	33.4	33.4	92	31.3	0	1	315	0.00	30.057 
22:45	33.4	33.4	33.4	92	31.3	0	1	315	0.00	30.056 
22:50	33.4	33.4	33.4	92	31.3	0	1	315	0.01	30.056 
22:55	33.4	33.4	33.4	92	31.3	0	1	315	0.00	30.056 
23:00	33.5	33.5	33.5	92	31.4	0	1	315	0.00	30.058 
23:05	33.5	33.5	33.5	92	31.4	0	1	315	0.00	30.058 
23:10	33.5	33.5	33.5	92	31.4	0	1	315	0.00	30.058 
23:15	33.7	33.7	33.7	92	31.6	0	1	315	0.00	30.053 
23:20	33.7	33.7	33.7	93	31.9	0	2	315	0.00	30.053 
23:25	33.7	33.7	33.7	93	31.9	0	1	315	0.01	30.053 
23:30	33.8	33.8	33.8	93	32.0	0	2	315	0.00	30.054 
23:35	33.8	33.8	33.8	93	32.0	0	1	315	0.00	30.054 
23:40	34.0	34.0	34.0	93	32.2	0	3	315	0.00	30.054 
23:45	34.0	34.0	34.0	93	32.2	0	2	315	0.00	30.045 
23:50	34.0	34.0	34.0	93	32.2	0	1	315	0.00	30.045 
23:55	34.1	34.1	34.1	93	32.3	0	1	315	0.00	30.045 

CoCoRaHS
IN-AL-39
A2 Web Hosting
Creative Commons License
GoDaddy
search engine by freefind advanced

loaded 2018-11-15 18:08:38 • last modified 2010-11-18 10:43:29
Privacy PolicyDisclaimer
• wx.awcolley.com is powered by PmWiki v.2002016 •
• all content (unless otherwise noted) © 2018 A W Colley